createdAt,value
2023-04-12T00:00:44.761Z,47.54
2023-04-12T00:01:44.722Z,47.57
2023-04-12T00:02:44.966Z,46.60
2023-04-12T00:03:44.823Z,48.00
2023-04-12T00:04:44.857Z,48.96
2023-04-12T00:05:44.709Z,47.17
2023-04-12T00:06:44.661Z,46.72
2023-04-12T00:07:44.835Z,47.18
2023-04-12T00:08:44.668Z,53.99
2023-04-12T00:09:44.687Z,48.30
2023-04-12T00:10:44.697Z,46.88
2023-04-12T00:11:44.738Z,47.63
2023-04-12T00:12:44.653Z,49.79
2023-04-12T00:13:44.641Z,47.83
2023-04-12T00:14:44.665Z,48.26
2023-04-12T00:15:44.625Z,46.48
2023-04-12T00:16:44.623Z,46.53
2023-04-12T00:17:44.654Z,46.64
2023-04-12T00:18:44.630Z,47.89
2023-04-12T00:19:44.650Z,47.12
2023-04-12T00:20:44.642Z,46.49
2023-04-12T00:21:44.605Z,47.48
2023-04-12T00:22:44.596Z,46.42
2023-04-12T00:23:44.601Z,49.42
2023-04-12T00:24:44.579Z,48.94
2023-04-12T00:25:44.609Z,55.36
2023-04-12T00:26:44.568Z,48.96
2023-04-12T00:27:44.561Z,46.62
2023-04-12T00:28:44.578Z,46.41
2023-04-12T00:29:44.560Z,49.86
2023-04-12T00:30:44.565Z,48.46
2023-04-12T00:31:44.618Z,47.07
2023-04-12T00:32:44.627Z,48.90
2023-04-12T00:33:44.549Z,47.15
2023-04-12T00:34:44.533Z,47.11
2023-04-12T00:35:45.573Z,48.69
2023-04-12T00:36:44.566Z,46.67
2023-04-12T00:37:44.550Z,46.29
2023-04-12T00:38:44.498Z,47.49
2023-04-12T00:39:44.496Z,47.46
2023-04-12T00:40:44.499Z,47.30
2023-04-12T00:41:44.495Z,48.02
2023-04-12T00:42:44.502Z,46.81
2023-04-12T00:43:44.476Z,48.04
2023-04-12T00:44:44.469Z,48.47
2023-04-12T00:45:44.506Z,46.94
2023-04-12T00:46:44.557Z,46.39
2023-04-12T00:47:44.510Z,47.11
2023-04-12T00:48:44.432Z,48.25
2023-04-12T00:49:44.438Z,47.84
2023-04-12T00:50:44.431Z,47.92
2023-04-12T00:51:44.453Z,46.80
2023-04-12T00:52:44.423Z,46.67
2023-04-12T00:53:44.436Z,47.23
2023-04-12T00:54:44.396Z,46.83
2023-04-12T00:55:44.397Z,47.76
2023-04-12T00:56:44.407Z,48.31
2023-04-12T00:57:44.381Z,48.03
2023-04-12T00:58:44.392Z,48.27
2023-04-12T00:59:44.396Z,47.68
2023-04-12T01:00:44.441Z,49.71
2023-04-12T01:01:44.454Z,49.30
2023-04-12T01:02:44.484Z,47.19
2023-04-12T01:03:44.436Z,48.11
2023-04-12T01:04:44.414Z,47.21
2023-04-12T01:05:44.337Z,48.39
2023-04-12T01:06:44.327Z,48.61
2023-04-12T01:07:44.424Z,46.77
2023-04-12T01:08:44.349Z,46.75
2023-04-12T01:09:44.318Z,46.78
2023-04-12T01:10:44.306Z,48.14
2023-04-12T01:11:44.313Z,51.25
2023-04-12T01:12:44.310Z,48.85
2023-04-12T01:13:44.317Z,47.13
2023-04-12T01:14:44.291Z,46.68
2023-04-12T01:15:44.336Z,47.63
2023-04-12T01:16:44.401Z,48.15
2023-04-12T01:17:44.319Z,47.00
2023-04-12T01:18:44.259Z,48.60
2023-04-12T01:19:44.266Z,47.80
2023-04-12T01:20:44.257Z,46.58
2023-04-12T01:21:44.259Z,46.59
2023-04-12T01:22:44.254Z,47.37
2023-04-12T01:23:44.230Z,49.68
2023-04-12T01:24:44.246Z,51.43
2023-04-12T01:25:44.274Z,51.49
2023-04-12T01:26:44.249Z,48.60
2023-04-12T01:27:44.248Z,50.57
2023-04-12T01:28:44.212Z,50.14
2023-04-12T01:29:44.206Z,47.16
2023-04-12T01:30:44.200Z,47.30
2023-04-12T01:31:44.264Z,49.43
2023-04-12T01:32:44.213Z,50.28
2023-04-12T01:33:44.191Z,47.03
2023-04-12T01:34:44.189Z,46.84
2023-04-12T01:35:44.252Z,50.17
2023-04-12T01:36:44.199Z,49.40
2023-04-12T01:37:44.179Z,48.63
2023-04-12T01:38:44.167Z,52.05
2023-04-12T01:39:44.164Z,53.56
2023-04-12T01:40:44.202Z,53.36
2023-04-12T01:41:44.468Z,48.23
2023-04-12T01:42:44.185Z,48.46
2023-04-12T01:43:44.127Z,47.17
2023-04-12T01:44:44.127Z,47.88
2023-04-12T01:45:44.206Z,47.98
2023-04-12T01:46:44.130Z,47.14
2023-04-12T01:47:44.115Z,46.99
2023-04-12T01:48:44.105Z,47.50
2023-04-12T01:49:44.116Z,48.87
2023-04-12T01:50:44.107Z,47.45
2023-04-12T01:51:44.146Z,47.19
2023-04-12T01:52:44.091Z,46.78
2023-04-12T01:53:44.069Z,47.41
2023-04-12T01:54:44.065Z,52.26
2023-04-12T01:55:44.058Z,50.47
2023-04-12T01:56:44.097Z,48.80
2023-04-12T01:57:44.080Z,47.24
2023-04-12T01:58:44.092Z,49.04
2023-04-12T01:59:44.065Z,49.22
2023-04-12T02:00:44.123Z,48.63
2023-04-12T02:01:44.227Z,47.61
2023-04-12T02:02:44.168Z,49.20
2023-04-12T02:03:44.111Z,50.55
2023-04-12T02:04:44.039Z,48.33
2023-04-12T02:05:44.011Z,50.21
2023-04-12T02:06:43.999Z,57.90
2023-04-12T02:07:43.991Z,51.30
2023-04-12T02:08:44.031Z,47.82
2023-04-12T02:09:43.997Z,47.09
2023-04-12T02:10:43.969Z,47.13
2023-04-12T02:11:43.984Z,48.22
2023-04-12T02:12:43.975Z,48.39
2023-04-12T02:13:43.986Z,47.13
2023-04-12T02:14:43.959Z,49.49
2023-04-12T02:15:43.972Z,49.79
2023-04-12T02:16:43.984Z,59.34
2023-04-12T02:17:43.998Z,58.74
2023-04-12T02:18:43.966Z,58.72
2023-04-12T02:19:43.942Z,58.29
2023-04-12T02:20:43.950Z,57.97
2023-04-12T02:21:43.908Z,58.90
2023-04-12T02:22:43.901Z,59.83
2023-04-12T02:23:43.908Z,55.44
2023-04-12T02:24:43.931Z,49.46
2023-04-12T02:25:43.918Z,46.79
2023-04-12T02:26:43.901Z,46.89
2023-04-12T02:27:43.884Z,47.24
2023-04-12T02:28:43.905Z,47.65
2023-04-12T02:29:43.875Z,46.69
2023-04-12T02:30:43.951Z,47.08
2023-04-12T02:31:43.882Z,46.67
2023-04-12T02:32:43.953Z,49.02
2023-04-12T02:33:43.871Z,51.03
2023-04-12T02:34:43.848Z,49.41
2023-04-12T02:35:43.924Z,47.75
2023-04-12T02:36:43.854Z,50.52
2023-04-12T02:37:43.855Z,52.71
2023-04-12T02:38:43.822Z,50.98
2023-04-12T02:39:43.836Z,49.44
2023-04-12T02:40:43.820Z,48.06
2023-04-12T02:41:43.803Z,48.63
2023-04-12T02:42:43.839Z,49.97
2023-04-12T02:43:43.795Z,57.25
2023-04-12T02:44:43.784Z,50.73
2023-04-12T02:45:43.882Z,52.08
2023-04-12T02:46:43.811Z,48.01
2023-04-12T02:47:43.892Z,49.43
2023-04-12T02:48:43.752Z,50.18
2023-04-12T02:49:44.763Z,51.40
2023-04-12T02:50:43.760Z,51.58
2023-04-12T02:51:43.749Z,52.88
2023-04-12T02:52:44.777Z,47.15
2023-04-12T02:53:43.750Z,48.40
2023-04-12T02:54:43.742Z,50.45
2023-04-12T02:55:43.785Z,50.02
2023-04-12T02:56:43.749Z,49.68
2023-04-12T02:57:43.755Z,50.42
2023-04-12T02:58:43.711Z,50.68
2023-04-12T02:59:43.719Z,50.32
2023-04-12T03:00:43.731Z,53.56
2023-04-12T03:01:43.833Z,50.86
2023-04-12T03:02:43.883Z,47.96
2023-04-12T03:03:43.779Z,50.56
2023-04-12T03:04:43.688Z,51.21
2023-04-12T03:05:43.681Z,50.24
2023-04-12T03:06:43.678Z,52.84
2023-04-12T03:07:43.691Z,51.80
2023-04-12T03:08:43.684Z,49.48
2023-04-12T03:09:43.682Z,53.52
2023-04-12T03:10:43.637Z,52.56
2023-04-12T03:11:43.650Z,49.55
2023-04-12T03:12:43.673Z,52.26
2023-04-12T03:13:43.677Z,49.13
2023-04-12T03:14:43.635Z,50.34
2023-04-12T03:15:43.690Z,51.40
2023-04-12T03:16:43.645Z,51.69
2023-04-12T03:17:43.698Z,58.24
2023-04-12T03:18:43.606Z,52.05
2023-04-12T03:19:43.604Z,52.67
2023-04-12T03:20:45.288Z,55.06
2023-04-12T03:21:43.616Z,50.26
2023-04-12T03:22:43.600Z,51.26
2023-04-12T03:23:43.596Z,51.41
2023-04-12T03:24:43.602Z,55.32
2023-04-12T03:25:43.596Z,53.03
2023-04-12T03:26:43.546Z,53.07
2023-04-12T03:27:43.547Z,54.74
2023-04-12T03:28:43.600Z,55.62
2023-04-12T03:29:43.602Z,54.59
2023-04-12T03:30:43.578Z,54.54
2023-04-12T03:31:43.661Z,55.25
2023-04-12T03:32:43.555Z,52.77
2023-04-12T03:33:43.512Z,55.13
2023-04-12T03:34:43.566Z,54.52
2023-04-12T03:35:43.735Z,57.46
2023-04-12T03:36:43.538Z,51.68
2023-04-12T03:37:43.505Z,53.13
2023-04-12T03:38:43.504Z,55.48
2023-04-12T03:39:43.478Z,52.43
2023-04-12T03:40:43.523Z,54.26
2023-04-12T03:41:43.499Z,53.54
2023-04-12T03:42:43.482Z,54.54
2023-04-12T03:43:43.486Z,54.17
2023-04-12T03:44:43.467Z,56.18
2023-04-12T03:45:43.464Z,55.79
2023-04-12T03:46:43.520Z,51.93
2023-04-12T03:47:43.505Z,57.52
2023-04-12T03:48:43.426Z,55.84
2023-04-12T03:49:43.472Z,52.60
2023-04-12T03:50:43.450Z,57.22
2023-04-12T03:51:43.450Z,54.40
2023-04-12T03:52:43.406Z,54.15
2023-04-12T03:53:43.404Z,54.45
2023-04-12T03:54:43.433Z,55.68
2023-04-12T03:55:43.408Z,54.11
2023-04-12T03:56:45.973Z,53.50
2023-04-12T03:57:43.387Z,51.38
2023-04-12T03:58:43.394Z,52.42
2023-04-12T03:59:43.391Z,51.36
2023-04-12T04:00:43.359Z,56.47
2023-04-12T04:01:43.531Z,55.52
2023-04-12T04:02:43.439Z,55.19
2023-04-12T04:03:44.056Z,53.67
2023-04-12T04:04:43.416Z,54.46
2023-04-12T04:05:43.330Z,55.87
2023-04-12T04:06:43.351Z,57.56
2023-04-12T04:07:43.371Z,56.10
2023-04-12T04:08:43.355Z,57.61
2023-04-12T04:09:43.316Z,57.07
2023-04-12T04:10:43.344Z,58.73
2023-04-12T04:11:43.311Z,56.90
2023-04-12T04:12:43.315Z,59.35
2023-04-12T04:13:43.330Z,57.76
2023-04-12T04:14:43.306Z,56.34
2023-04-12T04:15:43.280Z,58.05
2023-04-12T04:16:43.431Z,57.61
2023-04-12T04:17:44.325Z,57.05
2023-04-12T04:18:43.299Z,54.86
2023-04-12T04:19:43.296Z,57.52
2023-04-12T04:20:43.280Z,56.33
2023-04-12T04:21:43.269Z,55.86
2023-04-12T04:22:43.236Z,54.69
2023-04-12T04:23:43.244Z,56.21
2023-04-12T04:24:43.260Z,57.43
2023-04-12T04:25:43.250Z,55.49
2023-04-12T04:26:43.265Z,56.11
2023-04-12T04:27:43.222Z,57.94
2023-04-12T04:28:43.221Z,57.51
2023-04-12T04:29:43.264Z,56.00
2023-04-12T04:30:43.214Z,58.28
2023-04-12T04:31:43.265Z,55.69
2023-04-12T04:32:43.280Z,56.19
2023-04-12T04:33:43.337Z,58.60
2023-04-12T04:34:43.270Z,57.59
2023-04-12T04:35:43.249Z,56.63
2023-04-12T04:36:43.218Z,57.80
2023-04-12T04:37:43.178Z,56.68
2023-04-12T04:38:43.188Z,56.68
2023-04-12T04:39:43.168Z,56.64
2023-04-12T04:40:43.226Z,57.86
2023-04-12T04:41:43.184Z,55.84
2023-04-12T04:42:43.219Z,57.12
2023-04-12T04:43:43.170Z,57.57
2023-04-12T04:44:43.135Z,58.32
2023-04-12T04:45:43.241Z,55.78
2023-04-12T04:46:43.146Z,56.01
2023-04-12T04:47:43.172Z,56.74
2023-04-12T04:48:43.133Z,58.64
2023-04-12T04:49:43.107Z,56.79
2023-04-12T04:50:43.128Z,54.30
2023-04-12T04:51:43.147Z,57.37
2023-04-12T04:52:43.097Z,56.44
2023-04-12T04:53:43.081Z,57.36
2023-04-12T04:54:43.086Z,54.93
2023-04-12T04:55:43.120Z,58.68
2023-04-12T04:56:43.113Z,59.05
2023-04-12T04:57:43.228Z,58.45
2023-04-12T04:58:43.151Z,57.50
2023-04-12T04:59:43.084Z,56.32
2023-04-12T05:00:43.079Z,59.29
2023-04-12T05:01:43.144Z,59.06
2023-04-12T05:02:43.208Z,60.93
2023-04-12T05:03:43.126Z,61.16
2023-04-12T05:04:43.046Z,58.99
2023-04-12T05:05:43.026Z,60.05
2023-04-12T05:06:43.014Z,56.76
2023-04-12T05:07:43.086Z,56.25
2023-04-12T05:08:43.053Z,57.26
2023-04-12T05:09:43.122Z,56.75
2023-04-12T05:10:43.029Z,58.88
2023-04-12T05:11:42.993Z,57.31
2023-04-12T05:12:43.042Z,56.59
2023-04-12T05:13:43.000Z,57.55
2023-04-12T05:14:47.943Z,57.01
2023-04-12T05:15:45.004Z,56.80
2023-04-12T05:16:43.004Z,57.51
2023-04-12T05:17:43.041Z,56.34
2023-04-12T05:18:42.977Z,58.07
2023-04-12T05:19:43.076Z,57.25
2023-04-12T05:20:42.949Z,57.21
2023-04-12T05:21:43.003Z,57.15
2023-04-12T05:22:43.131Z,57.71
2023-04-12T05:23:42.945Z,56.28
2023-04-12T05:24:42.938Z,53.53
2023-04-12T05:25:42.926Z,55.98
2023-04-12T05:26:42.956Z,57.22
2023-04-12T05:27:42.947Z,56.63
2023-04-12T05:28:42.959Z,56.39
2023-04-12T05:29:42.902Z,55.79
2023-04-12T05:30:42.966Z,55.90
2023-04-12T05:31:42.914Z,57.35
2023-04-12T05:32:42.939Z,56.35
2023-04-12T05:33:42.949Z,56.16
2023-04-12T05:34:42.901Z,57.22
2023-04-12T05:35:42.935Z,55.85
2023-04-12T05:36:42.905Z,55.51
2023-04-12T05:37:42.869Z,56.22
2023-04-12T05:38:42.902Z,57.68
2023-04-12T05:39:42.858Z,55.57
2023-04-12T05:40:42.842Z,59.53
2023-04-12T05:41:42.849Z,58.02
2023-04-12T05:42:42.867Z,57.02
2023-04-12T05:43:42.844Z,57.84
2023-04-12T05:44:42.830Z,57.79
2023-04-12T05:45:42.860Z,58.32
2023-04-12T05:46:42.904Z,59.06
2023-04-12T05:47:42.931Z,57.86
2023-04-12T05:48:42.801Z,57.21
2023-04-12T05:49:42.866Z,58.00
2023-04-12T05:50:42.801Z,57.05
2023-04-12T05:51:42.783Z,57.07
2023-04-12T05:52:42.839Z,55.34
2023-04-12T05:53:42.831Z,56.82
2023-04-12T05:54:42.838Z,57.85
2023-04-12T05:55:42.775Z,57.51
2023-04-12T05:56:42.773Z,56.06
2023-04-12T05:57:42.764Z,56.29
2023-04-12T05:58:42.789Z,56.16
2023-04-12T05:59:42.762Z,56.18
2023-04-12T06:00:43.813Z,57.45
2023-04-12T06:01:42.859Z,56.52
2023-04-12T06:02:42.879Z,57.90
2023-04-12T06:03:42.879Z,56.96
2023-04-12T06:04:50.764Z,57.36
2023-04-12T06:05:44.845Z,55.20
2023-04-12T06:06:42.725Z,54.72
2023-04-12T06:07:42.730Z,56.96
2023-04-12T06:08:42.709Z,56.96
2023-04-12T06:09:42.721Z,58.40
2023-04-12T06:10:42.758Z,57.35
2023-04-12T06:11:42.739Z,55.33
2023-04-12T06:12:42.708Z,57.46
2023-04-12T06:13:42.795Z,56.20
2023-04-12T06:14:42.707Z,58.48
2023-04-12T06:15:42.726Z,57.92
2023-04-12T06:16:42.818Z,57.37
2023-04-12T06:17:42.739Z,58.49
2023-04-12T06:18:42.661Z,58.95
2023-04-12T06:19:42.689Z,57.36
2023-04-12T06:20:42.691Z,57.77
2023-04-12T06:21:42.704Z,56.60
2023-04-12T06:22:42.708Z,54.14
2023-04-12T06:23:42.674Z,56.70
2023-04-12T06:24:42.679Z,57.53
2023-04-12T06:25:42.629Z,55.62
2023-04-12T06:26:42.652Z,53.67
2023-04-12T06:27:42.650Z,57.13
2023-04-12T06:28:42.658Z,56.75
2023-04-12T06:29:42.641Z,56.49
2023-04-12T06:30:42.591Z,58.64
2023-04-12T06:31:42.610Z,56.86
2023-04-12T06:32:42.621Z,57.96
2023-04-12T06:33:42.837Z,56.42
2023-04-12T06:34:42.563Z,58.15
2023-04-12T06:35:42.582Z,55.69
2023-04-12T06:36:42.566Z,54.16
2023-04-12T06:37:42.582Z,57.52
2023-04-12T06:38:43.361Z,56.39
2023-04-12T06:39:42.540Z,58.47
2023-04-12T06:40:42.570Z,56.24
2023-04-12T06:41:42.527Z,56.08
2023-04-12T06:42:42.528Z,58.32
2023-04-12T06:43:42.527Z,60.00
2023-04-12T06:44:42.586Z,57.91
2023-04-12T06:45:42.572Z,56.11
2023-04-12T06:46:42.558Z,57.88
2023-04-12T06:47:42.531Z,57.51
2023-04-12T06:48:42.529Z,55.62
2023-04-12T06:49:42.863Z,55.62
2023-04-12T06:50:42.487Z,56.00
2023-04-12T06:51:42.489Z,56.03
2023-04-12T06:52:42.496Z,56.25
2023-04-12T06:53:42.517Z,57.20
2023-04-12T06:54:42.525Z,56.58
2023-04-12T06:55:42.471Z,57.34
2023-04-12T06:56:42.469Z,57.26
2023-04-12T06:57:42.457Z,57.77
2023-04-12T06:58:43.445Z,57.31
2023-04-12T06:59:42.467Z,57.84
2023-04-12T07:00:42.579Z,56.90
2023-04-12T07:01:43.597Z,56.50
2023-04-12T07:02:42.580Z,57.09
2023-04-12T07:03:42.489Z,58.18
2023-04-12T07:04:42.411Z,58.93
2023-04-12T07:05:42.427Z,56.31
2023-04-12T07:06:42.477Z,57.40
2023-04-12T07:07:42.398Z,57.94
2023-04-12T07:08:42.407Z,58.35
2023-04-12T07:09:42.409Z,53.35
2023-04-12T07:10:42.422Z,51.69
2023-04-12T07:11:42.409Z,53.83
2023-04-12T07:12:42.410Z,57.49
2023-04-12T07:13:42.374Z,55.93
2023-04-12T07:14:44.470Z,57.20
2023-04-12T07:15:42.395Z,57.83
2023-04-12T07:16:42.500Z,56.94
2023-04-12T07:17:42.374Z,57.16
2023-04-12T07:18:42.379Z,56.01
2023-04-12T07:19:42.469Z,56.92
2023-04-12T07:20:42.356Z,54.26
2023-04-12T07:21:42.368Z,55.36
2023-04-12T07:22:42.328Z,56.21
2023-04-12T07:23:42.329Z,57.02
2023-04-12T07:24:42.350Z,56.74
2023-04-12T07:25:42.385Z,55.81
2023-04-12T07:26:42.310Z,57.41
2023-04-12T07:27:42.308Z,58.19
2023-04-12T07:28:42.344Z,58.90
2023-04-12T07:29:42.320Z,53.56
2023-04-12T07:30:42.336Z,54.78
2023-04-12T07:31:42.306Z,56.86
2023-04-12T07:32:42.385Z,58.51
2023-04-12T07:33:43.421Z,57.15
2023-04-12T07:34:43.311Z,56.26
2023-04-12T07:35:42.341Z,57.33
2023-04-12T07:36:42.401Z,57.51
2023-04-12T07:37:42.348Z,57.68
2023-04-12T07:38:42.300Z,55.75
2023-04-12T07:39:42.307Z,56.79
2023-04-12T07:40:42.328Z,55.06
2023-04-12T07:41:42.258Z,56.17
2023-04-12T07:42:42.257Z,58.03
2023-04-12T07:43:42.250Z,59.54
2023-04-12T07:44:42.273Z,58.02
2023-04-12T07:45:42.292Z,58.77
2023-04-12T07:46:42.208Z,59.36
2023-04-12T07:47:42.233Z,62.15
2023-04-12T07:48:42.234Z,63.41
2023-04-12T07:49:42.273Z,63.79
2023-04-12T07:50:42.290Z,61.36
2023-04-12T07:51:43.552Z,65.00
2023-04-12T07:52:42.244Z,60.16
2023-04-12T07:53:42.191Z,60.03
2023-04-12T07:54:42.229Z,58.79
2023-04-12T07:55:42.186Z,58.61
2023-04-12T07:56:42.184Z,59.92
2023-04-12T07:57:42.147Z,59.69
2023-04-12T07:58:42.167Z,58.59
2023-04-12T07:59:42.180Z,60.07
2023-04-12T08:00:42.156Z,59.06
2023-04-12T08:01:42.187Z,57.41
2023-04-12T08:02:42.279Z,58.92
2023-04-12T08:03:42.340Z,60.20
2023-04-12T08:04:42.142Z,60.61
2023-04-12T08:05:42.248Z,60.63
2023-04-12T08:06:42.112Z,61.17
2023-04-12T08:07:42.142Z,60.46
2023-04-12T08:08:42.148Z,60.35
2023-04-12T08:09:42.143Z,60.87
2023-04-12T08:10:42.134Z,60.77
2023-04-12T08:11:42.089Z,60.97
2023-04-12T08:12:42.107Z,61.39
2023-04-12T08:13:42.152Z,61.08
2023-04-12T08:14:42.092Z,59.35
2023-04-12T08:15:42.101Z,58.15
2023-04-12T08:16:42.084Z,57.75
2023-04-12T08:17:42.115Z,60.83
2023-04-12T08:18:43.087Z,61.56
2023-04-12T08:19:42.105Z,61.13
2023-04-12T08:20:42.081Z,61.73
2023-04-12T08:21:42.039Z,61.17
2023-04-12T08:22:42.097Z,59.95
2023-04-12T08:23:42.043Z,59.86
2023-04-12T08:24:45.920Z,59.74
2023-04-12T08:25:43.120Z,61.95
2023-04-12T08:26:42.029Z,63.96
2023-04-12T08:27:42.031Z,60.22
2023-04-12T08:28:42.053Z,58.29
2023-04-12T08:29:42.073Z,57.20
2023-04-12T08:30:42.067Z,57.71
2023-04-12T08:31:42.086Z,57.02
2023-04-12T08:32:42.033Z,60.15
2023-04-12T08:33:41.998Z,60.26
2023-04-12T08:34:43.705Z,59.93
2023-04-12T08:35:42.186Z,59.97
2023-04-12T08:36:41.999Z,59.88
2023-04-12T08:37:42.002Z,62.26
2023-04-12T08:38:46.141Z,61.31
2023-04-12T08:39:42.989Z,64.05
2023-04-12T08:40:42.003Z,63.34
2023-04-12T08:41:41.974Z,62.53
2023-04-12T08:42:41.954Z,62.21
2023-04-12T08:43:41.927Z,60.96
2023-04-12T08:44:41.951Z,59.97
2023-04-12T08:45:41.995Z,59.57
2023-04-12T08:46:41.987Z,59.19
2023-04-12T08:47:41.986Z,58.99
2023-04-12T08:48:41.959Z,57.03
2023-04-12T08:49:41.961Z,58.52
2023-04-12T08:50:41.920Z,59.08
2023-04-12T08:51:42.012Z,58.74
2023-04-12T08:52:41.985Z,58.42
2023-04-12T08:53:42.918Z,59.84
2023-04-12T08:54:41.903Z,59.25
2023-04-12T08:55:41.900Z,59.90
2023-04-12T08:56:41.912Z,59.38
2023-04-12T08:57:41.938Z,57.36
2023-04-12T08:58:41.884Z,57.05
2023-04-12T08:59:41.857Z,57.57
2023-04-12T09:00:41.838Z,58.98
2023-04-12T09:01:42.958Z,61.09
2023-04-12T09:02:42.087Z,65.65
2023-04-12T09:03:41.982Z,64.33
2023-04-12T09:04:41.940Z,61.31
2023-04-12T09:05:41.850Z,65.90
2023-04-12T09:06:41.834Z,65.12
2023-04-12T09:07:41.877Z,64.27
2023-04-12T09:08:41.830Z,66.55
2023-04-12T09:09:41.815Z,61.83
2023-04-12T09:10:42.826Z,61.74
2023-04-12T09:11:41.814Z,61.15
2023-04-12T09:12:41.808Z,61.01
2023-04-12T09:13:41.902Z,63.34
2023-04-12T09:14:41.844Z,64.15
2023-04-12T09:15:41.794Z,64.00
2023-04-12T09:16:41.898Z,64.58
2023-04-12T09:17:41.809Z,67.84
2023-04-12T09:18:42.814Z,66.03
2023-04-12T09:19:41.812Z,61.94
2023-04-12T09:20:41.774Z,61.18
2023-04-12T09:21:41.877Z,63.36
2023-04-12T09:22:41.760Z,64.30
2023-04-12T09:23:41.802Z,64.05
2023-04-12T09:24:41.760Z,65.32
2023-04-12T09:25:41.754Z,61.92
2023-04-12T09:26:41.728Z,60.36
2023-04-12T09:27:41.733Z,59.90
2023-04-12T09:28:41.726Z,61.99
2023-04-12T09:29:41.818Z,65.16
2023-04-12T09:30:41.763Z,61.69
2023-04-12T09:31:41.734Z,60.98
2023-04-12T09:32:41.732Z,59.16
2023-04-12T09:33:41.671Z,58.15
2023-04-12T09:34:41.694Z,58.07
2023-04-12T09:35:41.797Z,58.53
2023-04-12T09:36:41.689Z,58.81
2023-04-12T09:37:41.798Z,59.72
2023-04-12T09:38:41.684Z,59.33
2023-04-12T09:39:41.695Z,57.88
2023-04-12T09:40:41.703Z,58.28
2023-04-12T09:41:41.700Z,60.54
2023-04-12T09:42:41.683Z,59.69
2023-04-12T09:43:41.646Z,60.31
2023-04-12T09:44:41.691Z,62.41
2023-04-12T09:45:41.705Z,61.63
2023-04-12T09:46:41.721Z,61.84
2023-04-12T09:47:41.748Z,61.16
2023-04-12T09:48:41.699Z,59.79
2023-04-12T09:49:41.663Z,57.74
2023-04-12T09:50:41.609Z,59.04
2023-04-12T09:51:41.659Z,62.03
2023-04-12T09:52:41.641Z,61.17
2023-04-12T09:53:41.608Z,61.33
2023-04-12T09:54:41.581Z,60.39
2023-04-12T09:55:41.751Z,60.43
2023-04-12T09:56:41.597Z,58.67
2023-04-12T09:57:41.743Z,58.89
2023-04-12T09:58:41.606Z,57.89
2023-04-12T09:59:41.602Z,58.46
2023-04-12T10:00:41.680Z,58.23
2023-04-12T10:01:41.734Z,59.48
2023-04-12T10:02:41.778Z,59.36
2023-04-12T10:03:41.615Z,60.92
2023-04-12T10:04:41.641Z,57.82
2023-04-12T10:05:41.542Z,60.34
2023-04-12T10:06:41.617Z,89.02
2023-04-12T10:07:41.614Z,79.51
2023-04-12T10:08:41.593Z,87.33
2023-04-12T10:09:41.521Z,81.56
2023-04-12T10:10:41.526Z,81.47
2023-04-12T10:11:41.543Z,83.19
2023-04-12T10:12:41.570Z,79.01
2023-04-12T10:13:41.535Z,76.74
2023-04-12T10:14:41.535Z,83.73
2023-04-12T10:15:41.534Z,77.55
2023-04-12T10:16:41.729Z,83.12
2023-04-12T10:17:41.525Z,78.63
2023-04-12T10:18:41.546Z,85.22
2023-04-12T10:19:41.468Z,83.93
2023-04-12T10:20:41.474Z,84.56
2023-04-12T10:21:41.468Z,84.25
2023-04-12T10:22:41.515Z,75.55
2023-04-12T10:23:41.495Z,80.90
2023-04-12T10:24:41.481Z,85.47
2023-04-12T10:25:41.511Z,62.55
2023-04-12T10:26:41.437Z,57.07
2023-04-12T10:27:41.662Z,56.49
2023-04-12T10:28:41.469Z,59.45
2023-04-12T10:29:41.440Z,58.12
2023-04-12T10:30:41.531Z,57.72
2023-04-12T10:31:41.541Z,56.72
2023-04-12T10:32:41.462Z,58.35
2023-04-12T10:33:41.414Z,56.87
2023-04-12T10:34:41.437Z,57.74
2023-04-12T10:35:41.485Z,57.03
2023-04-12T10:36:41.419Z,55.67
2023-04-12T10:37:41.402Z,56.38
2023-04-12T10:38:41.440Z,54.81
2023-04-12T10:39:41.465Z,57.14
2023-04-12T10:40:41.422Z,55.31
2023-04-12T10:41:41.405Z,56.30
2023-04-12T10:42:41.413Z,55.16
2023-04-12T10:43:41.395Z,55.74
2023-04-12T10:44:41.431Z,53.57
2023-04-12T10:45:41.389Z,57.56
2023-04-12T10:46:41.475Z,59.19
2023-04-12T10:47:41.412Z,57.45
2023-04-12T10:48:41.343Z,54.44
2023-04-12T10:49:41.325Z,55.73
2023-04-12T10:50:41.364Z,58.79
2023-04-12T10:51:41.365Z,57.10
2023-04-12T10:52:41.367Z,55.65
2023-04-12T10:53:41.366Z,56.64
2023-04-12T10:54:41.334Z,58.18
2023-04-12T10:55:41.376Z,57.09
2023-04-12T10:56:41.335Z,58.58
2023-04-12T10:57:41.349Z,57.68
2023-04-12T10:58:41.351Z,57.39
2023-04-12T10:59:47.543Z,53.60
2023-04-12T11:00:43.405Z,55.21
2023-04-12T11:01:41.565Z,57.27
2023-04-12T11:02:41.430Z,58.00
2023-04-12T11:03:41.771Z,58.75
2023-04-12T11:04:41.351Z,62.65
2023-04-12T11:05:41.455Z,65.66
2023-04-12T11:06:41.361Z,61.19
2023-04-12T11:07:41.318Z,60.91
2023-04-12T11:08:41.443Z,64.76
2023-04-12T11:09:41.278Z,57.68
2023-04-12T11:10:41.266Z,57.37
2023-04-12T11:11:41.265Z,53.88
2023-04-12T11:12:41.277Z,57.06
2023-04-12T11:13:41.228Z,54.51
2023-04-12T11:14:41.235Z,56.69
2023-04-12T11:15:41.213Z,58.65
2023-04-12T11:16:41.255Z,56.38
2023-04-12T11:17:41.259Z,57.58
2023-04-12T11:18:41.337Z,58.71
2023-04-12T11:19:41.307Z,59.96
2023-04-12T11:20:41.306Z,57.06
2023-04-12T11:21:41.224Z,58.55
2023-04-12T11:22:41.178Z,56.69
2023-04-12T11:23:41.243Z,55.51
2023-04-12T11:24:41.175Z,55.99
2023-04-12T11:25:41.215Z,54.70
2023-04-12T11:26:41.185Z,57.08
2023-04-12T11:27:41.172Z,56.29
2023-04-12T11:28:41.246Z,57.54
2023-04-12T11:29:41.258Z,56.82
2023-04-12T11:30:41.174Z,57.09
2023-04-12T11:31:41.161Z,58.32
2023-04-12T11:32:41.287Z,58.10
2023-04-12T11:33:41.129Z,57.45
2023-04-12T11:34:41.227Z,62.89
2023-04-12T11:35:41.154Z,65.48
2023-04-12T11:36:41.119Z,63.90
2023-04-12T11:37:41.125Z,57.69
2023-04-12T11:38:41.157Z,57.70
2023-04-12T11:39:41.160Z,58.45
2023-04-12T11:40:41.246Z,59.51
2023-04-12T11:41:41.119Z,58.78
2023-04-12T11:42:41.083Z,56.56
2023-04-12T11:43:41.108Z,55.83
2023-04-12T11:44:56.475Z,59.81
2023-04-12T11:45:43.133Z,56.16
2023-04-12T11:46:41.071Z,55.03
2023-04-12T11:47:41.088Z,55.14
2023-04-12T11:48:41.096Z,58.00
2023-04-12T11:49:41.055Z,57.64
2023-04-12T11:50:41.079Z,57.08
2023-04-12T11:51:41.085Z,56.52
2023-04-12T11:52:41.085Z,57.98
2023-04-12T11:53:41.028Z,57.02
2023-04-12T11:54:41.042Z,57.43
2023-04-12T11:55:41.023Z,58.17
2023-04-12T11:56:41.830Z,55.33
2023-04-12T11:57:41.020Z,55.07
2023-04-12T11:58:41.041Z,56.85
2023-04-12T11:59:41.017Z,54.69
2023-04-12T12:00:41.080Z,54.43
2023-04-12T12:01:41.033Z,54.51
2023-04-12T12:02:52.297Z,57.22
2023-04-12T12:03:43.232Z,56.61
2023-04-12T12:04:41.232Z,57.42
2023-04-12T12:05:41.126Z,55.76
2023-04-12T12:06:41.380Z,62.09
2023-04-12T12:07:41.008Z,61.49
2023-04-12T12:08:40.998Z,61.96
2023-04-12T12:09:40.969Z,62.32
2023-04-12T12:10:55.627Z,61.53
2023-04-12T12:11:42.952Z,61.30
2023-04-12T12:12:40.965Z,61.81
2023-04-12T12:13:41.850Z,61.21
2023-04-12T12:14:41.948Z,60.10
2023-04-12T12:15:40.970Z,58.55
2023-04-12T12:16:40.935Z,57.73
2023-04-12T12:17:40.971Z,55.55
2023-04-12T12:18:40.960Z,57.83
2023-04-12T12:19:40.948Z,58.12
2023-04-12T12:20:40.963Z,57.34
2023-04-12T12:21:42.753Z,56.86
2023-04-12T12:22:40.917Z,57.24
2023-04-12T12:23:40.939Z,57.54
2023-04-12T12:24:43.578Z,56.60
2023-04-12T12:25:42.026Z,56.17
2023-04-12T12:26:40.915Z,54.57
2023-04-12T12:27:40.936Z,55.48
2023-04-12T12:28:40.880Z,57.97
2023-04-12T12:29:40.872Z,57.24
2023-04-12T12:30:40.863Z,56.51
2023-04-12T12:31:42.764Z,56.57
2023-04-12T12:32:41.871Z,57.30
2023-04-12T12:33:46.631Z,56.14
2023-04-12T12:34:42.854Z,54.89
2023-04-12T12:35:40.898Z,57.00
2023-04-12T12:36:40.828Z,57.68
2023-04-12T12:37:41.834Z,57.82
2023-04-12T12:38:40.825Z,57.81
2023-04-12T12:39:40.816Z,56.01
2023-04-12T12:40:40.874Z,55.83
2023-04-12T12:41:40.891Z,55.51
2023-04-12T12:42:40.882Z,57.15
2023-04-12T12:43:40.781Z,56.69
2023-04-12T12:44:40.799Z,58.17
2023-04-12T12:45:40.786Z,58.56
2023-04-12T12:46:53.211Z,58.21
2023-04-12T12:47:42.796Z,55.56
2023-04-12T12:48:40.795Z,55.29
2023-04-12T12:49:40.777Z,56.51
2023-04-12T12:50:40.770Z,55.47
2023-04-12T12:51:40.770Z,56.58
2023-04-12T12:52:40.736Z,57.38